Time;durP1;ratioP1;P1;durP2;ratioP2;P2;SDS_P1;SDS_P2;PMS_P1;PMS_P2;Temp;Humidity;BMP_temperature;BMP_pressure;BME280_temperature;BME280_humidity;BME280_pressure;Samples;Min_cycle;Max_cycle;Signal;HPM_P1;HPM_P2
2022/10/31 00:01:12;;;;;;;10.82;7.55;;;;;;;-146.48;100.00;60459.00;5302836;28;20028;-76
2022/10/31 00:03:44;;;;;;;14.55;8.48;;;;;;;-146.48;100.00;60459.00;5302905;28;20035;-76
2022/10/31 00:06:19;;;;;;;14.27;7.68;;;;;;;-146.48;100.00;60459.00;5303332;28;20024;-76
2022/10/31 00:08:55;;;;;;;16.73;8.45;;;;;;;-146.48;100.00;60459.00;5301860;28;20382;-76
2022/10/31 00:11:27;;;;;;;10.88;7.95;;;;;;;-146.48;100.00;60459.00;5302822;28;20119;-77
2022/10/31 00:13:59;;;;;;;12.95;8.13;;;;;;;-146.48;100.00;60459.00;5303241;28;20095;-76
2022/10/31 00:16:30;;;;;;;11.70;7.68;;;;;;;-146.48;100.00;60459.00;5301793;28;20114;-76
2022/10/31 00:19:04;;;;;;;12.27;8.13;;;;;;;-146.48;100.00;60459.00;5303041;28;20024;-76
2022/10/31 00:21:35;;;;;;;12.27;7.80;;;;;;;-146.48;100.00;60459.00;5301836;28;20028;-76
2022/10/31 00:24:07;;;;;;;13.85;8.23;;;;;;;-146.48;100.00;60459.00;5303150;28;20063;-77
2022/10/31 00:26:38;;;;;;;9.35;8.00;;;;;;;-146.48;100.00;60459.00;5302172;28;20020;-76
2022/10/31 00:29:10;;;;;;;11.02;7.78;;;;;;;-146.48;100.00;60459.00;5301821;28;20105;-77
2022/10/31 00:31:41;;;;;;;14.70;8.45;;;;;;;-146.48;100.00;60459.00;5302325;28;20102;-78
2022/10/31 00:34:12;;;;;;;12.20;7.80;;;;;;;-146.48;100.00;60459.00;5302642;28;20050;-77
2022/10/31 00:36:43;;;;;;;11.77;7.45;;;;;;;-146.48;100.00;60459.00;5301576;28;20027;-77
2022/10/31 00:39:15;;;;;;;15.02;8.13;;;;;;;-146.48;100.00;60459.00;5302949;28;20030;-77
2022/10/31 00:41:46;;;;;;;11.88;7.63;;;;;;;-146.48;100.00;60459.00;5302008;28;20028;-77
2022/10/31 00:44:17;;;;;;;12.38;7.90;;;;;;;-146.48;100.00;60459.00;5301797;28;20070;-77
2022/10/31 00:46:48;;;;;;;10.93;7.43;;;;;;;-146.48;100.00;60459.00;5301637;28;20039;-77
2022/10/31 00:49:20;;;;;;;9.70;7.93;;;;;;;-146.48;100.00;60459.00;5301850;28;20035;-77
2022/10/31 00:51:51;;;;;;;8.88;6.95;;;;;;;-146.48;100.00;60459.00;5301976;28;20479;-77
2022/10/31 00:54:22;;;;;;;10.88;8.05;;;;;;;-146.48;100.00;60459.00;5302701;28;20391;-77
2022/10/31 00:56:54;;;;;;;9.13;7.47;;;;;;;-146.48;100.00;60459.00;5301213;28;20028;-77
2022/10/31 00:59:25;;;;;;;13.73;8.60;;;;;;;-146.48;100.00;60459.00;5302270;28;20024;-77
2022/10/31 01:01:56;;;;;;;10.80;7.47;;;;;;;-146.48;100.00;60459.00;5302205;28;20463;-77
2022/10/31 01:04:27;;;;;;;15.07;7.78;;;;;;;-146.48;100.00;60459.00;5301053;28;20502;-77
2022/10/31 01:06:59;;;;;;;10.82;7.55;;;;;;;-146.48;100.00;60459.00;5302347;28;20437;-77
2022/10/31 01:09:30;;;;;;;12.02;8.23;;;;;;;-146.48;100.00;60459.00;5301791;28;20028;-78
2022/10/31 01:12:01;;;;;;;12.15;8.00;;;;;;;-146.48;100.00;60459.00;5301699;28;20060;-78
2022/10/31 01:14:33;;;;;;;15.07;7.97;;;;;;;-146.48;100.00;60459.00;5301839;28;20028;-77
2022/10/31 01:17:04;;;;;;;13.60;8.13;;;;;;;-146.48;100.00;60459.00;5302705;28;20059;-77
2022/10/31 01:19:35;;;;;;;9.68;7.68;;;;;;;-146.48;100.00;60459.00;5300705;28;20070;-77
2022/10/31 01:22:06;;;;;;;10.07;7.82;;;;;;;-146.48;100.00;60459.00;5302272;28;20057;-77
2022/10/31 01:24:38;;;;;;;12.63;8.20;;;;;;;-146.48;100.00;60459.00;5300942;28;20020;-77
2022/10/31 01:27:09;;;;;;;11.93;8.30;;;;;;;-146.48;100.00;60459.00;5302267;28;20115;-77
2022/10/31 01:29:40;;;;;;;11.63;8.23;;;;;;;-146.48;100.00;60459.00;5301362;28;20059;-77
2022/10/31 01:32:11;;;;;;;11.60;8.18;;;;;;;-146.48;100.00;60459.00;5301973;28;20032;-77
2022/10/31 01:34:43;;;;;;;11.55;8.25;;;;;;;-146.48;100.00;60459.00;5305945;28;20024;-77
2022/10/31 01:37:14;;;;;;;10.82;8.02;;;;;;;-146.48;100.00;60459.00;5306509;28;20111;-77
2022/10/31 01:39:48;;;;;;;8.75;7.35;;;;;;;-146.48;100.00;60459.00;5305167;28;20024;-77
2022/10/31 01:42:21;;;;;;;11.65;7.47;;;;;;;-146.48;100.00;60459.00;5306138;28;20032;-77
2022/10/31 01:44:59;;;;;;;9.95;8.32;;;;;;;-146.48;100.00;60459.00;5305390;28;20055;-77
2022/10/31 01:47:45;;;;;;;8.90;7.68;;;;;;;-146.48;100.00;60459.00;5304920;28;20391;-77
2022/10/31 01:50:27;;;;;;;11.35;8.02;;;;;;;-146.48;100.00;60459.00;5306251;28;20085;-78
2022/10/31 01:53:01;;;;;;;9.43;7.97;;;;;;;-146.48;100.00;60459.00;5305345;28;20055;-78
2022/10/31 01:55:35;;;;;;;13.18;8.38;;;;;;;-146.48;100.00;60459.00;5305640;28;20100;-78
2022/10/31 01:58:28;;;;;;;11.27;7.93;;;;;;;-146.48;100.00;60459.00;5305968;28;20059;-78
2022/10/31 02:01:03;;;;;;;10.10;7.70;;;;;;;-146.48;100.00;60459.00;5304863;28;20024;-77
2022/10/31 02:03:34;;;;;;;10.05;7.68;;;;;;;-146.48;100.00;60459.00;5305269;28;20526;-78
2022/10/31 02:06:11;;;;;;;10.63;7.47;;;;;;;-146.48;100.00;60459.00;5305854;28;20115;-77
2022/10/31 02:08:43;;;;;;;11.13;8.25;;;;;;;-146.48;100.00;60459.00;5304314;28;20031;-77
2022/10/31 02:11:15;;;;;;;9.88;8.48;;;;;;;-146.48;100.00;60459.00;5305758;28;20066;-78
2022/10/31 02:13:47;;;;;;;10.45;8.43;;;;;;;-146.48;100.00;60459.00;5304217;28;20107;-78
2022/10/31 02:16:18;;;;;;;12.55;8.82;;;;;;;-146.48;100.00;60459.00;5305759;28;20032;-77
2022/10/31 02:18:50;;;;;;;9.90;7.88;;;;;;;-146.48;100.00;60459.00;5305042;28;20028;-77
2022/10/31 02:21:33;;;;;;;9.75;8.10;;;;;;;-146.48;100.00;60459.00;5304794;28;20024;-77
2022/10/31 02:24:29;;;;;;;12.43;8.50;;;;;;;-146.48;100.00;60459.00;5305333;28;20024;-76
2022/10/31 02:27:37;;;;;;;14.60;8.30;;;;;;;-146.48;100.00;60459.00;5305411;28;20028;-77
2022/10/31 02:30:23;;;;;;;10.45;7.63;;;;;;;-146.48;100.00;60459.00;5304245;28;20085;-77
2022/10/31 02:33:11;;;;;;;12.88;8.20;;;;;;;-146.48;100.00;60459.00;5305077;28;20058;-77
2022/10/31 02:35:55;;;;;;;10.07;7.65;;;;;;;-146.48;100.00;60459.00;5303822;28;20394;-77
2022/10/31 02:38:50;;;;;;;12.32;8.25;;;;;;;-146.48;100.00;60459.00;5304571;28;20104;-78
2022/10/31 02:41:39;;;;;;;12.45;8.40;;;;;;;-146.48;100.00;60459.00;5305093;28;20111;-77
2022/10/31 02:44:43;;;;;;;10.43;8.15;;;;;;;-146.48;100.00;60459.00;5302858;28;20036;-77
2022/10/31 02:47:16;;;;;;;11.50;8.10;;;;;;;-146.48;100.00;60459.00;5304754;28;20096;-77
2022/10/31 02:49:55;;;;;;;13.27;8.60;;;;;;;-146.48;100.00;60459.00;5303413;28;20111;-76
2022/10/31 02:52:28;;;;;;;;;;;;;;;-146.48;100.00;60459.00;5304756;28;20467;-77
2022/10/31 02:55:13;;;;;;;12.43;7.82;;;;;;;-146.48;100.00;60459.00;5304801;28;20049;-77
2022/10/31 02:57:44;;;;;;;12.73;8.80;;;;;;;-146.48;100.00;60459.00;5303356;28;20714;-77
2022/10/31 03:00:16;;;;;;;11.23;8.23;;;;;;;-146.48;100.00;60459.00;5304850;28;20106;-76
2022/10/31 03:03:06;;;;;;;12.23;8.88;;;;;;;-146.48;100.00;60459.00;5304089;28;20016;-77
2022/10/31 03:05:44;;;;;;;10.27;8.35;;;;;;;-146.48;100.00;60459.00;5303904;28;20024;-77
2022/10/31 03:08:15;;;;;;;12.23;7.78;;;;;;;-146.48;100.00;60459.00;5304528;28;20419;-77
2022/10/31 03:10:59;;;;;;;9.18;7.45;;;;;;;-146.48;100.00;60459.00;5303065;28;20067;-77
2022/10/31 03:13:49;;;;;;;9.40;7.80;;;;;;;-146.48;100.00;60459.00;5303864;28;20071;-77
2022/10/31 03:16:29;;;;;;;13.40;8.45;;;;;;;-146.48;100.00;60459.00;5304425;28;20077;-77
2022/10/31 03:19:06;;;;;;;11.77;8.80;;;;;;;-146.48;100.00;60459.00;5303498;28;20036;-77
2022/10/31 03:21:45;;;;;;;11.30;8.10;;;;;;;-146.48;100.00;60459.00;5303768;28;20073;-77
2022/10/31 03:24:20;;;;;;;11.23;8.45;;;;;;;-146.48;100.00;60459.00;5303534;28;20032;-77
2022/10/31 03:26:55;;;;;;;14.65;8.10;;;;;;;-146.48;100.00;60459.00;5303448;28;20107;-77
2022/10/31 03:29:32;;;;;;;11.20;8.45;;;;;;;-146.48;100.00;60459.00;5303445;28;20062;-78
2022/10/31 03:32:12;;;;;;;13.35;8.73;;;;;;;-146.48;100.00;60459.00;5303312;28;20085;-78
2022/10/31 03:34:45;;;;;;;11.95;8.23;;;;;;;-146.48;100.00;60459.00;5303471;28;20036;-78
2022/10/31 03:37:19;;;;;;;11.90;8.15;;;;;;;-146.48;100.00;60459.00;5303795;28;20081;-78
2022/10/31 03:39:52;;;;;;;14.63;7.95;;;;;;;-146.48;100.00;60459.00;5302729;28;20106;-77
2022/10/31 03:42:25;;;;;;;11.57;7.47;;;;;;;-146.48;100.00;60459.00;5303552;28;20024;-78
2022/10/31 03:45:06;;;;;;;12.23;7.50;;;;;;;-146.48;100.00;60459.00;5303543;28;20052;-78
2022/10/31 03:47:39;;;;;;;11.73;8.18;;;;;;;-146.48;100.00;60459.00;5303061;28;20132;-78
2022/10/31 03:50:14;;;;;;;11.98;7.95;;;;;;;-146.48;100.00;60459.00;5303660;28;20024;-78
2022/10/31 03:52:52;;;;;;;10.98;7.60;;;;;;;-146.48;100.00;60459.00;5302463;28;20019;-78
2022/10/31 03:55:33;;;;;;;12.73;7.90;;;;;;;-146.48;100.00;60459.00;5303088;28;20108;-78
2022/10/31 03:58:11;;;;;;;10.27;8.07;;;;;;;-146.48;100.00;60459.00;5303664;28;20412;-78
2022/10/31 04:00:45;;;;;;;11.02;8.18;;;;;;;-146.48;100.00;60459.00;5302421;28;20038;-78
2022/10/31 04:03:25;;;;;;;10.40;7.82;;;;;;;-146.48;100.00;60459.00;5303781;28;20027;-78
2022/10/31 04:06:00;;;;;;;10.15;8.15;;;;;;;-146.48;100.00;60459.00;5303127;28;20035;-78
2022/10/31 04:08:39;;;;;;;9.02;8.00;;;;;;;-146.48;100.00;60459.00;5302177;28;20032;-78
2022/10/31 04:11:13;;;;;;;15.25;9.65;;;;;;;-146.48;100.00;60459.00;5303236;28;20024;-78
2022/10/31 04:13:46;;;;;;;12.07;8.80;;;;;;;-146.48;100.00;60459.00;5301909;28;20028;-78
2022/10/31 04:16:19;;;;;;;12.05;8.50;;;;;;;-146.48;100.00;60459.00;5303301;28;20024;-79
2022/10/31 04:18:51;;;;;;;9.93;8.43;;;;;;;-146.48;100.00;60459.00;5302477;28;20017;-79
2022/10/31 04:21:30;;;;;;;12.65;8.68;;;;;;;-146.48;100.00;60459.00;5302196;28;20028;-79
2022/10/31 04:24:01;;;;;;;16.67;8.48;;;;;;;-146.48;100.00;60459.00;5303189;28;20028;-79
2022/10/31 04:26:32;;;;;;;10.77;8.40;;;;;;;-146.48;100.00;60459.00;5302429;28;20085;-79
2022/10/31 04:29:04;;;;;;;11.05;8.20;;;;;;;-146.48;100.00;60459.00;5301697;28;20088;-79
2022/10/31 04:31:35;;;;;;;12.10;8.10;;;;;;;-146.48;100.00;60459.00;5302504;28;20125;-78
2022/10/31 04:34:07;;;;;;;12.73;8.52;;;;;;;-146.48;100.00;60459.00;5302914;28;20077;-78
2022/10/31 04:36:38;;;;;;;13.88;8.45;;;;;;;-146.48;100.00;60459.00;5301524;28;20030;-78
2022/10/31 04:39:09;;;;;;;12.95;9.20;;;;;;;-146.48;100.00;60459.00;5302951;28;20024;-78
2022/10/31 04:41:41;;;;;;;12.70;10.02;;;;;;;-146.48;100.00;60459.00;5301530;28;20028;-78
2022/10/31 04:44:12;;;;;;;12.98;9.48;;;;;;;-146.48;100.00;60459.00;5302638;28;20451;-79
2022/10/31 04:46:43;;;;;;;15.40;9.02;;;;;;;-146.48;100.00;60459.00;5301908;28;20487;-78
2022/10/31 04:49:14;;;;;;;12.07;8.50;;;;;;;-146.48;100.00;60459.00;5301853;28;20479;-79
2022/10/31 04:51:45;;;;;;;14.02;9.68;;;;;;;-146.48;100.00;60459.00;5302147;28;20032;-78
2022/10/31 04:54:17;;;;;;;12.50;9.20;;;;;;;-146.48;100.00;60459.00;5302579;28;20038;-78
2022/10/31 04:56:48;;;;;;;11.98;9.15;;;;;;;-146.48;100.00;60459.00;5301394;28;20020;-78
2022/10/31 04:59:19;;;;;;;12.90;8.80;;;;;;;-146.48;100.00;60459.00;5302559;28;20169;-78
2022/10/31 05:01:50;;;;;;;13.07;9.30;;;;;;;-146.48;100.00;60459.00;5301906;28;20030;-78
2022/10/31 05:04:22;;;;;;;14.38;9.60;;;;;;;-146.48;100.00;60459.00;5301781;28;20032;-79
2022/10/31 05:06:53;;;;;;;13.93;10.05;;;;;;;-146.48;100.00;60459.00;5301882;28;20495;-78
2022/10/31 05:09:24;;;;;;;12.48;9.65;;;;;;;-146.48;100.00;60459.00;5306826;28;20070;-78
2022/10/31 05:11:56;;;;;;;11.73;9.20;;;;;;;-146.48;100.00;60459.00;5305795;28;20020;-78
2022/10/31 05:14:27;;;;;;;13.07;9.48;;;;;;;-146.48;100.00;60459.00;5306537;28;20047;-78
2022/10/31 05:16:58;;;;;;;15.40;9.77;;;;;;;-146.48;100.00;60459.00;5305908;28;20391;-78
2022/10/31 05:19:29;;;;;;;16.15;10.25;;;;;;;-146.48;100.00;60459.00;5306201;28;20367;-79
2022/10/31 05:22:01;;;;;;;16.80;9.85;;;;;;;-146.48;100.00;60459.00;5307493;28;20467;-78
2022/10/31 05:24:32;;;;;;;12.68;9.55;;;;;;;-146.48;100.00;60459.00;5305537;28;20455;-78
2022/10/31 05:27:03;;;;;;;13.93;9.68;;;;;;;-146.48;100.00;60459.00;5306473;28;20064;-78
2022/10/31 05:29:34;;;;;;;13.88;10.27;;;;;;;-146.48;100.00;60459.00;5305744;28;20085;-78
2022/10/31 05:32:06;;;;;;;15.23;10.55;;;;;;;-146.48;100.00;60459.00;5305579;28;20024;-78
2022/10/31 05:34:37;;;;;;;13.35;10.18;;;;;;;-146.48;100.00;60459.00;5305934;28;20023;-78
2022/10/31 05:37:08;;;;;;;13.57;10.00;;;;;;;-146.48;100.00;60459.00;5306484;28;20024;-78
2022/10/31 05:39:39;;;;;;;17.55;10.73;;;;;;;-146.48;100.00;60459.00;5305026;28;20055;-78
2022/10/31 05:42:11;;;;;;;14.43;10.90;;;;;;;-146.48;100.00;60459.00;5306185;28;20081;-78
2022/10/31 05:44:42;;;;;;;13.00;10.55;;;;;;;-146.48;100.00;60459.00;5304984;28;20230;-79
2022/10/31 05:47:13;;;;;;;13.25;10.98;;;;;;;-146.48;100.00;60459.00;5306127;28;20028;-78
2022/10/31 05:49:44;;;;;;;15.10;11.13;;;;;;;-146.48;100.00;60459.00;5305573;28;20031;-79
2022/10/31 05:52:16;;;;;;;13.68;10.85;;;;;;;-146.48;100.00;60459.00;5305316;28;20032;-79
2022/10/31 05:54:47;;;;;;;15.60;11.77;;;;;;;-146.48;100.00;60459.00;5305440;28;20500;-79
2022/10/31 05:57:19;;;;;;;16.30;12.10;;;;;;;-146.48;100.00;60459.00;5305964;28;20491;-79
2022/10/31 05:59:52;;;;;;;14.70;11.45;;;;;;;-146.48;100.00;60459.00;5304452;28;20528;-79
2022/10/31 06:02:23;;;;;;;15.48;11.48;;;;;;;-146.48;100.00;60459.00;5305772;28;20020;-78
2022/10/31 06:04:55;;;;;;;14.07;11.45;;;;;;;-146.48;100.00;60459.00;5305487;28;20032;-78
2022/10/31 06:07:26;;;;;;;14.20;11.32;;;;;;;-146.48;100.00;60459.00;5304503;28;20028;-78
2022/10/31 06:09:57;;;;;;;14.15;10.98;;;;;;;-146.48;100.00;60459.00;5305828;28;20080;-78
2022/10/31 06:12:29;;;;;;;17.35;13.15;;;;;;;-146.48;100.00;60459.00;5305046;28;20028;-78
2022/10/31 06:15:00;;;;;;;19.65;12.98;;;;;;;-146.48;100.00;60459.00;5304807;28;20020;-79
2022/10/31 06:17:33;;;;;;;20.48;12.32;;;;;;;-146.48;100.00;60459.00;5304816;28;20180;-80
2022/10/31 06:20:05;;;;;;;18.60;12.80;;;;;;;-146.48;100.00;60459.00;5304540;28;20367;-78
2022/10/31 06:22:36;;;;;;;15.77;12.60;;;;;;;-146.48;100.00;60459.00;5304229;28;20028;-78
2022/10/31 06:25:08;;;;;;;17.25;13.52;;;;;;;-146.48;100.00;60459.00;5304915;28;20024;-79
2022/10/31 06:27:39;;;;;;;19.38;13.18;;;;;;;-146.48;100.00;60459.00;5303732;28;20081;-80
2022/10/31 06:30:11;;;;;;;18.48;13.48;;;;;;;-146.48;100.00;60459.00;5304744;28;20093;-80
2022/10/31 06:32:42;;;;;;;18.80;12.93;;;;;;;-146.48;100.00;60459.00;5304527;28;20027;-79
2022/10/31 06:35:14;;;;;;;18.42;13.15;;;;;;;-146.48;100.00;60459.00;5304417;28;20100;-81
2022/10/31 06:37:52;;;;;;;15.07;12.52;;;;;;;-146.48;100.00;60459.00;5304695;28;20537;-79
2022/10/31 06:40:24;;;;;;;20.13;12.32;;;;;;;-146.48;100.00;60459.00;5304860;28;20012;-80
2022/10/31 06:42:59;;;;;;;17.88;12.57;;;;;;;-146.48;100.00;60459.00;5303862;28;20027;-80
2022/10/31 06:45:30;;;;;;;20.20;13.13;;;;;;;-146.48;100.00;60459.00;5304223;28;20032;-78
2022/10/31 06:48:02;;;;;;;20.13;12.95;;;;;;;-146.48;100.00;60459.00;5303939;28;20321;-76
2022/10/31 06:50:33;;;;;;;17.95;13.63;;;;;;;-146.48;100.00;60459.00;5304164;28;20024;-78
2022/10/31 06:53:05;;;;;;;14.88;13.15;;;;;;;-146.48;100.00;60459.00;5304752;28;20032;-79
2022/10/31 06:55:36;;;;;;;23.48;14.07;;;;;;;-146.48;100.00;60459.00;5303904;28;20529;-80
2022/10/31 06:58:09;;;;;;;18.48;13.20;;;;;;;-146.48;100.00;60459.00;5304438;28;20153;-79
2022/10/31 07:00:41;;;;;;;18.98;13.40;;;;;;;-146.48;100.00;60459.00;5303928;28;20048;-79
2022/10/31 07:03:13;;;;;;;20.48;13.75;;;;;;;-146.48;100.00;60459.00;5303583;28;20074;-78
2022/10/31 07:05:45;;;;;;;22.40;14.55;;;;;;;-146.48;100.00;60459.00;5303530;28;20031;-79
2022/10/31 07:08:16;;;;;;;24.80;14.85;;;;;;;-146.48;100.00;60459.00;5304596;28;20024;-77
2022/10/31 07:10:55;;;;;;;19.73;14.95;;;;;;;-146.48;100.00;60459.00;5303036;28;20165;-80
2022/10/31 07:13:26;;;;;;;20.50;14.68;;;;;;;-146.48;100.00;60459.00;5303503;28;20020;-79
2022/10/31 07:16:03;;;;;;;18.95;14.93;;;;;;;-146.48;100.00;60459.00;5304159;28;20072;-77
2022/10/31 07:18:34;;;;;;;16.98;14.73;;;;;;;-146.48;100.00;60459.00;5303221;28;20020;-78
2022/10/31 07:21:06;;;;;;;21.70;15.45;;;;;;;-146.48;100.00;60459.00;5304001;28;20055;-77
2022/10/31 07:23:37;;;;;;;21.30;14.20;;;;;;;-146.48;100.00;60459.00;5302736;28;20449;-77
2022/10/31 07:26:09;;;;;;;21.75;13.85;;;;;;;-146.48;100.00;60459.00;5304094;28;20031;-77
2022/10/31 07:28:41;;;;;;;21.10;13.88;;;;;;;-146.48;100.00;60459.00;5303580;28;20035;-77
2022/10/31 07:31:12;;;;;;;19.10;13.93;;;;;;;-146.48;100.00;60459.00;5301244;28;20448;-73
2022/10/31 07:33:43;;;;;;;15.88;12.35;;;;;;;-146.48;100.00;60459.00;5302308;28;20027;-76
2022/10/31 07:36:15;;;;;;;17.45;13.45;;;;;;;-146.48;100.00;60459.00;5302501;28;20093;-76
2022/10/31 07:38:46;;;;;;;21.10;14.13;;;;;;;-146.48;100.00;60459.00;5301901;28;20048;-77
2022/10/31 07:41:17;;;;;;;21.00;14.95;;;;;;;-146.48;100.00;60459.00;5303632;28;20024;-76
2022/10/31 07:43:49;;;;;;;20.30;14.70;;;;;;;-146.48;100.00;60459.00;5302124;28;20028;-75
2022/10/31 07:46:21;;;;;;;18.88;14.55;;;;;;;-146.48;100.00;60459.00;5302605;28;20340;-76
2022/10/31 07:48:53;;;;;;;18.95;15.70;;;;;;;-146.48;100.00;60459.00;5302569;28;20491;-77
2022/10/31 07:51:24;;;;;;;23.63;14.98;;;;;;;-146.48;100.00;60459.00;5302399;28;20024;-78
2022/10/31 07:53:55;;;;;;;20.30;15.10;;;;;;;-146.48;100.00;60459.00;5303609;28;20371;-78
2022/10/31 07:56:26;;;;;;;24.13;16.13;;;;;;;-146.48;100.00;60459.00;5302876;28;20016;-77
2022/10/31 07:58:58;;;;;;;23.60;15.85;;;;;;;-146.48;100.00;60459.00;5302836;28;20103;-78
2022/10/31 08:01:29;;;;;;;22.25;16.42;;;;;;;-146.48;100.00;60459.00;5302376;28;20020;-75
2022/10/31 08:04:00;;;;;;;23.80;15.85;;;;;;;-146.48;100.00;60459.00;5302985;28;20034;-76
2022/10/31 08:06:32;;;;;;;23.88;17.45;;;;;;;-146.48;100.00;60459.00;5301737;28;20032;-76
2022/10/31 08:09:03;;;;;;;24.65;17.10;;;;;;;-146.48;100.00;60459.00;5302922;28;20039;-76
2022/10/31 08:11:34;;;;;;;24.52;16.98;;;;;;;-146.48;100.00;60459.00;5302362;28;20020;-75
2022/10/31 08:14:05;;;;;;;27.02;17.98;;;;;;;-146.48;100.00;60459.00;5301946;28;20111;-75
2022/10/31 08:16:37;;;;;;;23.80;18.05;;;;;;;-146.48;100.00;60459.00;5302211;28;20743;-76
2022/10/31 08:19:08;;;;;;;26.95;19.15;;;;;;;-146.48;100.00;60459.00;5302703;28;20032;-76
2022/10/31 08:21:39;;;;;;;23.88;19.05;;;;;;;-146.48;100.00;60459.00;5301051;28;20032;-75
2022/10/31 08:24:11;;;;;;;28.85;19.48;;;;;;;-146.48;100.00;60459.00;5302697;28;20024;-76
2022/10/31 08:26:42;;;;;;;25.65;19.40;;;;;;;-146.48;100.00;60459.00;5301131;28;20147;-76
2022/10/31 08:29:14;;;;;;;23.63;18.08;;;;;;;-146.48;100.00;60459.00;5302493;28;20040;-76
2022/10/31 08:31:45;;;;;;;25.20;18.92;;;;;;;-146.48;100.00;60459.00;5302282;28;20429;-76
2022/10/31 08:34:16;;;;;;;24.40;19.48;;;;;;;-146.48;100.00;60459.00;5301908;28;20032;-77
2022/10/31 08:36:48;;;;;;;26.80;18.92;;;;;;;-146.48;100.00;60459.00;5301952;28;20102;-77
2022/10/31 08:39:19;;;;;;;22.75;19.08;;;;;;;-146.48;100.00;60459.00;5302238;28;20031;-76
2022/10/31 08:41:50;;;;;;;26.38;19.60;;;;;;;-146.48;100.00;60459.00;5301097;28;20093;-76
2022/10/31 08:44:21;;;;;;;31.58;20.35;;;;;;;-146.48;100.00;60459.00;5302223;28;20031;-77
2022/10/31 08:46:53;;;;;;;28.50;21.63;;;;;;;-146.48;100.00;60459.00;5301909;28;20024;-77
2022/10/31 08:49:24;;;;;;;24.30;19.48;;;;;;;-146.48;100.00;60459.00;5301290;28;20028;-77
2022/10/31 08:51:55;;;;;;;27.52;20.40;;;;;;;-146.48;100.00;60459.00;5301715;28;20023;-76
2022/10/31 08:54:27;;;;;;;25.15;18.92;;;;;;;-146.48;100.00;60459.00;5301780;28;20039;-78
2022/10/31 08:56:58;;;;;;;25.45;19.42;;;;;;;-146.48;100.00;60459.00;5301560;28;20024;-77
2022/10/31 08:59:29;;;;;;;25.33;18.67;;;;;;;-146.48;100.00;60459.00;5297838;28;20078;-75
2022/10/31 09:02:00;;;;;;;25.00;19.20;;;;;;;-146.48;100.00;60459.00;5300736;28;20027;-75
2022/10/31 09:04:32;;;;;;;27.92;19.70;;;;;;;-146.48;100.00;60459.00;5300632;28;20050;-74
2022/10/31 09:07:03;;;;;;;29.85;19.88;;;;;;;-146.48;100.00;60459.00;5301321;28;20379;-76
2022/10/31 09:09:34;;;;;;;28.20;19.25;;;;;;;-146.48;100.00;60459.00;5301047;28;20519;-75
2022/10/31 09:12:05;;;;;;;23.73;19.13;;;;;;;-146.48;100.00;60459.00;5302530;28;20016;-76
2022/10/31 09:14:37;;;;;;;29.33;19.42;;;;;;;-146.48;100.00;60459.00;5301420;28;20081;-73
2022/10/31 09:17:08;;;;;;;26.05;20.08;;;;;;;-146.48;100.00;60459.00;5301372;28;20028;-77
2022/10/31 09:19:39;;;;;;;29.67;21.05;;;;;;;-146.48;100.00;60459.00;5301426;28;20048;-77
2022/10/31 09:22:10;;;;;;;23.70;19.33;;;;;;;-146.48;100.00;60459.00;5301882;28;20406;-77
2022/10/31 09:24:42;;;;;;;24.45;20.40;;;;;;;-146.48;100.00;60459.00;5299445;28;20420;-77
2022/10/31 09:27:13;;;;;;;28.67;20.27;;;;;;;-146.48;100.00;60459.00;5300210;28;20429;-77
2022/10/31 09:29:44;;;;;;;28.50;21.33;;;;;;;-146.48;100.00;60459.00;5298942;28;20821;-76
2022/10/31 09:32:15;;;;;;;26.98;19.85;;;;;;;-146.48;100.00;60459.00;5300882;28;20395;-77
2022/10/31 09:34:47;;;;;;;26.92;20.40;;;;;;;-146.48;100.00;60459.00;5300805;28;20020;-77
2022/10/31 09:37:18;;;;;;;27.45;20.10;;;;;;;-146.48;100.00;60459.00;5300847;28;20032;-77
2022/10/31 09:39:49;;;;;;;24.50;19.77;;;;;;;-146.48;100.00;60459.00;5300953;28;20063;-77
2022/10/31 09:42:29;;;;;;;28.33;20.20;;;;;;;-146.48;100.00;60459.00;5301832;28;20332;-76
2022/10/31 09:45:14;;;;;;;24.33;20.08;;;;;;;-146.48;100.00;60459.00;5301066;28;20085;-77
2022/10/31 09:47:58;;;;;;;27.23;20.58;;;;;;;-146.48;100.00;60459.00;5301032;28;21062;-77
2022/10/31 09:50:52;;;;;;;29.83;21.20;;;;;;;-146.48;100.00;60459.00;5301202;28;20099;-76
2022/10/31 09:54:13;;;;;;;27.80;20.20;;;;;;;-146.48;100.00;60459.00;5302430;28;20021;-78
2022/10/31 09:56:45;;;;;;;29.10;21.27;;;;;;;-146.48;100.00;60459.00;5279137;28;20059;-76
2022/10/31 09:59:31;;;;;;;31.25;21.60;;;;;;;-146.48;100.00;60459.00;5304636;28;20024;-76
2022/10/31 10:02:20;;;;;;;29.95;21.42;;;;;;;-146.48;100.00;60459.00;5305338;28;20166;-76
2022/10/31 10:05:01;;;;;;;30.33;22.40;;;;;;;-146.48;100.00;60459.00;5304003;28;20437;-76
2022/10/31 10:07:32;;;;;;;29.20;22.98;;;;;;;-146.48;100.00;60459.00;5305064;28;20479;-76
2022/10/31 10:10:14;;;;;;;32.60;23.35;;;;;;;-146.48;100.00;60459.00;5305418;28;20031;-77
2022/10/31 10:13:04;;;;;;;27.42;20.60;;;;;;;-146.48;100.00;60459.00;5304045;28;20475;-76
2022/10/31 10:15:38;;;;;;;28.95;22.00;;;;;;;-146.48;100.00;60459.00;5304641;28;20032;-76
2022/10/31 10:18:33;;;;;;;31.98;23.50;;;;;;;-146.48;100.00;60459.00;5305140;28;20020;-77
2022/10/31 10:21:32;;;;;;;30.70;21.73;;;;;;;-146.48;100.00;60459.00;5289865;28;20047;-76
2022/10/31 10:24:25;;;;;;;28.05;21.58;;;;;;;-146.48;100.00;60459.00;5304994;28;20107;-76
2022/10/31 10:27:12;;;;;;;32.28;23.58;;;;;;;-146.48;100.00;60459.00;5303861;28;20044;-77
2022/10/31 10:29:50;;;;;;;36.80;23.88;;;;;;;-146.48;100.00;60459.00;5304333;28;20478;-76
2022/10/31 10:32:28;;;;;;;33.35;25.38;;;;;;;-146.48;100.00;60459.00;5305059;28;20081;-76
2022/10/31 10:35:14;;;;;;;31.45;24.02;;;;;;;-146.48;100.00;60459.00;5304209;28;20120;-76
2022/10/31 10:37:49;;;;;;;32.60;24.42;;;;;;;-146.48;100.00;60459.00;5304240;28;20032;-77
2022/10/31 10:40:24;;;;;;;38.05;26.00;;;;;;;-146.48;100.00;60459.00;5303940;28;20031;-76
2022/10/31 10:43:21;;;;;;;34.45;25.02;;;;;;;-146.48;100.00;60459.00;5304431;28;20113;-76
2022/10/31 10:49:11;;;;;;;37.33;25.77;;;;;;;-146.48;100.00;60459.00;5303511;28;20039;-76
2022/10/31 10:51:59;;;;;;;35.42;24.75;;;;;;;-146.48;100.00;60459.00;5303836;28;20119;-77
2022/10/31 10:54:30;;;;;;;38.15;25.42;;;;;;;-146.48;100.00;60459.00;5303100;28;20055;-76
2022/10/31 10:57:34;;;;;;;32.40;24.58;;;;;;;-146.48;100.00;60459.00;5304463;28;20051;-77
2022/10/31 11:00:24;;;;;;;39.45;24.85;;;;;;;-146.48;100.00;60459.00;5304201;28;20036;-77
2022/10/31 11:02:56;;;;;;;37.00;25.60;;;;;;;-146.48;100.00;60459.00;5303253;28;20027;-77
2022/10/31 11:05:58;;;;;;;36.95;26.05;;;;;;;-146.48;100.00;60459.00;5302249;28;20024;-77
2022/10/31 11:08:33;;;;;;;35.13;24.52;;;;;;;-146.48;100.00;60459.00;5302969;28;20770;-77
2022/10/31 11:11:13;;;;;;;36.10;23.92;;;;;;;-146.48;100.00;60459.00;5303803;28;20024;-77
2022/10/31 11:13:48;;;;;;;35.90;25.05;;;;;;;-146.48;100.00;60459.00;5303652;28;20020;-77
2022/10/31 11:16:26;;;;;;;38.35;25.27;;;;;;;-146.48;100.00;60459.00;5303196;28;20032;-77
2022/10/31 11:19:12;;;;;;;35.40;23.85;;;;;;;-146.48;100.00;60459.00;5303784;28;20315;-77
2022/10/31 11:21:45;;;;;;;36.80;24.40;;;;;;;-146.48;100.00;60459.00;5303203;28;20525;-77
2022/10/31 11:24:27;;;;;;;34.10;24.55;;;;;;;-146.48;100.00;60459.00;5303044;28;20035;-77
2022/10/31 11:27:19;;;;;;;34.25;24.67;;;;;;;-146.48;100.00;60459.00;5303723;28;20036;-77
2022/10/31 11:29:51;;;;;;;31.65;23.83;;;;;;;-146.48;100.00;60459.00;5302749;28;20058;-77
2022/10/31 11:32:26;;;;;;;36.50;23.20;;;;;;;-146.48;100.00;60459.00;5303852;28;20032;-77
2022/10/31 11:35:00;;;;;;;32.63;22.92;;;;;;;-146.48;100.00;60459.00;5303727;28;20024;-76